Time;durP1;ratioP1;P1;durP2;ratioP2;P2;SDS_P1;SDS_P2;PMS_P1;PMS_P2;Temp;Humidity;BMP_temperature;BMP_pressure;BME280_temperature;BME280_humidity;BME280_pressure;Samples;Min_cycle;Max_cycle;Signal;HPM_P1;HPM_P2
2022/05/25 00:01:34;;;;;;;0.00;0.00;;;;;;;;;;5074783;28;20057;-62
2022/05/25 00:04:01;;;;;;;0.00;0.00;;;;;;;;;;5049359;28;20057;-62
2022/05/25 00:06:28;;;;;;;0.00;0.00;;;;;;;;;;5077347;28;20052;-62
2022/05/25 00:08:54;;;;;;;0.00;0.00;;;;;;;;;;5087498;28;20107;-63
2022/05/25 00:11:21;;;;;;;0.00;0.00;;;;;;;;;;5058032;28;20066;-63
2022/05/25 00:13:47;;;;;;;0.00;0.00;;;;;;;;;;5049339;28;20092;-62
2022/05/25 00:16:14;;;;;;;0.00;0.00;;;;;;;;;;5075348;28;20511;-62
2022/05/25 00:19:58;;;;;;;0.00;0.00;;;;;;;;;;5087004;28;20059;-62
2022/05/25 00:21:26;;;;;;;0.00;0.00;;;;;;;;;;5076649;28;20107;-62
2022/05/25 00:23:53;;;;;;;0.00;0.00;;;;;;;;;;5061721;28;20103;-62
2022/05/25 00:26:19;;;;;;;0.00;0.00;;;;;;;;;;5088380;28;20056;-63
2022/05/25 00:28:45;;;;;;;0.00;0.00;;;;;;;;;;5050573;28;20081;-62
2022/05/25 00:31:12;;;;;;;0.00;0.00;;;;;;;;;;5075526;28;20821;-62
2022/05/25 00:33:39;;;;;;;0.00;0.00;;;;;;;;;;5054214;28;20076;-63
2022/05/25 00:36:05;;;;;;;0.00;0.00;;;;;;;;;;5087860;28;20138;-63
2022/05/25 00:38:32;;;;;;;0.00;0.00;;;;;;;;;;5088731;28;20560;-62
2022/05/25 00:40:58;;;;;;;0.00;0.00;;;;;;;;;;5083174;28;20090;-63
2022/05/25 00:43:25;;;;;;;0.00;0.00;;;;;;;;;;5053043;28;20507;-62
2022/05/25 00:45:55;;;;;;;0.00;0.00;;;;;;;;;;5048284;28;20050;-63
2022/05/25 00:48:23;;;;;;;0.00;0.00;;;;;;;;;;5047351;28;20053;-63
2022/05/25 00:53:35;;;;;;;0.00;0.00;;;;;;;;;;5055441;28;20072;-63
2022/05/25 00:56:02;;;;;;;0.00;0.00;;;;;;;;;;5088554;28;20056;-62
2022/05/25 00:58:28;;;;;;;0.00;0.00;;;;;;;;;;5086600;28;20079;-63
2022/05/25 01:00:55;;;;;;;0.00;0.00;;;;;;;;;;5050807;28;20057;-63
2022/05/25 01:03:21;;;;;;;0.00;0.00;;;;;;;;;;5052319;28;20152;-62
2022/05/25 01:06:00;;;;;;;0.00;0.00;;;;;;;;;;5087843;28;20545;-62
2022/05/25 01:08:33;;;;;;;0.00;0.00;;;;;;;;;;5088148;28;20592;-62
2022/05/25 01:11:03;;;;;;;0.00;0.00;;;;;;;;;;5080336;28;20606;-62
2022/05/25 01:13:49;;;;;;;0.00;0.00;;;;;;;;;;5047939;28;20107;-62
2022/05/25 01:16:18;;;;;;;0.00;0.00;;;;;;;;;;5047767;28;20101;-63
2022/05/25 01:19:03;;;;;;;0.00;0.00;;;;;;;;;;5058033;28;20060;-63
2022/05/25 01:21:34;;;;;;;0.00;0.00;;;;;;;;;;5057635;28;20507;-62
2022/05/25 01:24:10;;;;;;;0.00;0.00;;;;;;;;;;5077117;28;20114;-61
2022/05/25 01:26:55;;;;;;;0.00;0.00;;;;;;;;;;5087603;28;20049;-62
2022/05/25 01:29:27;;;;;;;0.00;0.00;;;;;;;;;;5086067;28;20049;-62
2022/05/25 01:31:57;;;;;;;0.00;0.00;;;;;;;;;;5062579;28;20158;-63
2022/05/25 01:34:35;;;;;;;0.00;0.00;;;;;;;;;;5047519;28;20108;-62
2022/05/25 01:37:15;;;;;;;0.00;0.00;;;;;;;;;;5046388;28;20053;-62
2022/05/25 01:39:47;;;;;;;0.00;0.00;;;;;;;;;;5059657;28;20507;-62
2022/05/25 01:42:20;;;;;;;0.25;0.22;;;;;;;;;;5050748;28;20046;-62
2022/05/25 01:44:51;;;;;;;0.00;0.00;;;;;;;;;;5047386;28;20057;-62
2022/05/25 01:47:18;;;;;;;0.00;0.00;;;;;;;;;;5051837;28;20053;-62
2022/05/25 01:49:50;;;;;;;0.00;0.00;;;;;;;;;;5075059;28;20060;-62
2022/05/25 01:52:20;;;;;;;0.00;0.00;;;;;;;;;;5063008;28;20057;-62
2022/05/25 01:54:52;;;;;;;0.00;0.00;;;;;;;;;;5047060;28;20057;-62
2022/05/25 01:57:21;;;;;;;0.00;0.00;;;;;;;;;;5058189;28;20087;-62
2022/05/25 01:59:48;;;;;;;0.00;0.00;;;;;;;;;;5085721;28;20056;-62
2022/05/25 02:05:01;;;;;;;0.00;0.00;;;;;;;;;;5082025;28;20140;-63
2022/05/25 02:07:31;;;;;;;0.00;0.00;;;;;;;;;;5087221;28;20129;-62
2022/05/25 02:10:04;;;;;;;0.00;0.00;;;;;;;;;;5079572;28;20060;-62
2022/05/25 02:12:49;;;;;;;0.00;0.00;;;;;;;;;;5057637;28;20143;-62
2022/05/25 02:15:22;;;;;;;0.00;0.00;;;;;;;;;;5047264;28;20053;-62
2022/05/25 02:17:48;;;;;;;0.00;0.00;;;;;;;;;;5047162;28;20106;-62
2022/05/25 02:20:20;;;;;;;0.00;0.00;;;;;;;;;;5055087;28;20522;-62
2022/05/25 02:22:50;;;;;;;0.00;0.00;;;;;;;;;;5049019;28;20111;-62
2022/05/25 02:25:27;;;;;;;0.00;0.00;;;;;;;;;;5046568;28;20053;-62
2022/05/25 02:27:56;;;;;;;0.00;0.00;;;;;;;;;;5058129;28;20053;-62
2022/05/25 02:30:24;;;;;;;0.00;0.00;;;;;;;;;;5084511;28;20079;-62
2022/05/25 02:32:58;;;;;;;0.00;0.00;;;;;;;;;;5049378;28;20123;-62
2022/05/25 02:35:25;;;;;;;0.00;0.00;;;;;;;;;;5046290;28;20540;-63
2022/05/25 02:37:52;;;;;;;0.00;0.00;;;;;;;;;;5062855;28;20056;-62
2022/05/25 02:40:19;;;;;;;0.00;0.00;;;;;;;;;;5084142;28;20053;-62
2022/05/25 02:42:46;;;;;;;0.00;0.00;;;;;;;;;;5051997;28;20605;-62
2022/05/25 02:45:13;;;;;;;0.00;0.00;;;;;;;;;;5066768;28;20095;-63
2022/05/25 02:47:40;;;;;;;0.00;0.00;;;;;;;;;;5071321;28;20080;-62
2022/05/25 02:50:07;;;;;;;0.00;0.00;;;;;;;;;;5070426;28;20061;-62
2022/05/25 02:52:33;;;;;;;0.00;0.00;;;;;;;;;;5052107;28;20053;-63
2022/05/25 02:55:00;;;;;;;0.00;0.00;;;;;;;;;;5050622;28;20084;-62
2022/05/25 02:57:26;;;;;;;0.00;0.00;;;;;;;;;;5052952;28;20562;-62
2022/05/25 02:59:53;;;;;;;0.00;0.00;;;;;;;;;;5066353;28;20057;-62
2022/05/25 03:02:19;;;;;;;0.00;0.00;;;;;;;;;;5065781;28;20609;-63
2022/05/25 03:04:45;;;;;;;0.00;0.00;;;;;;;;;;5070231;28;20511;-63
2022/05/25 03:07:12;;;;;;;0.00;0.00;;;;;;;;;;5068889;28;20053;-62
2022/05/25 03:09:39;;;;;;;0.00;0.00;;;;;;;;;;5090143;28;20207;-62
2022/05/25 03:12:06;;;;;;;0.00;0.00;;;;;;;;;;5065204;28;20085;-63
2022/05/25 03:14:33;;;;;;;0.00;0.00;;;;;;;;;;5049303;28;20555;-62
2022/05/25 03:17:08;;;;;;;0.00;0.00;;;;;;;;;;5049957;28;20057;-62
2022/05/25 03:19:37;;;;;;;0.00;0.00;;;;;;;;;;5048861;28;20104;-62
2022/05/25 03:22:04;;;;;;;0.00;0.00;;;;;;;;;;5054754;28;20573;-63
2022/05/25 03:24:30;;;;;;;0.00;0.00;;;;;;;;;;5069284;28;20492;-62
2022/05/25 03:26:58;;;;;;;0.00;0.00;;;;;;;;;;5069191;28;20107;-62
2022/05/25 03:29:24;;;;;;;0.00;0.00;;;;;;;;;;5088599;28;20126;-62
2022/05/25 03:31:51;;;;;;;0.00;0.00;;;;;;;;;;5068164;28;20049;-62
2022/05/25 03:34:18;;;;;;;0.00;0.00;;;;;;;;;;5083517;28;20571;-62
2022/05/25 03:36:44;;;;;;;0.00;0.00;;;;;;;;;;5089937;28;20564;-62
2022/05/25 03:39:11;;;;;;;0.00;0.00;;;;;;;;;;5089793;28;20098;-63
2022/05/25 03:41:37;;;;;;;0.00;0.00;;;;;;;;;;5079942;28;20084;-62
2022/05/25 03:44:04;;;;;;;0.00;0.00;;;;;;;;;;5069321;28;20056;-62
2022/05/25 03:46:31;;;;;;;0.00;0.00;;;;;;;;;;5081374;28;20063;-62
2022/05/25 03:48:57;;;;;;;0.00;0.00;;;;;;;;;;5089673;28;20068;-62
2022/05/25 03:51:24;;;;;;;0.00;0.00;;;;;;;;;;5072405;28;20593;-62
2022/05/25 03:53:50;;;;;;;0.00;0.00;;;;;;;;;;5049010;28;20589;-62
2022/05/25 03:56:16;;;;;;;0.10;0.10;;;;;;;;;;5049822;28;20103;-62
2022/05/25 03:58:43;;;;;;;0.00;0.00;;;;;;;;;;5047954;28;20050;-62
2022/05/25 04:01:09;;;;;;;0.00;0.00;;;;;;;;;;5083433;28;20502;-62
2022/05/25 04:03:36;;;;;;;0.00;0.00;;;;;;;;;;5048593;28;20359;-62
2022/05/25 04:06:02;;;;;;;0.00;0.00;;;;;;;;;;5048934;28;20080;-62
2022/05/25 04:08:28;;;;;;;0.00;0.00;;;;;;;;;;5055587;28;20566;-62
2022/05/25 04:10:55;;;;;;;0.00;0.00;;;;;;;;;;5083364;28;20604;-62
2022/05/25 04:13:22;;;;;;;0.00;0.00;;;;;;;;;;5050266;28;20468;-62
2022/05/25 04:15:49;;;;;;;0.00;0.00;;;;;;;;;;5049009;28;20423;-62
2022/05/25 04:18:16;;;;;;;0.00;0.00;;;;;;;;;;5049017;28;20053;-62
2022/05/25 04:20:42;;;;;;;0.00;0.00;;;;;;;;;;5080614;28;20300;-62
2022/05/25 04:23:10;;;;;;;0.25;0.22;;;;;;;;;;5068142;28;20048;-62
2022/05/25 04:25:38;;;;;;;0.00;0.00;;;;;;;;;;5058843;28;20492;-62
2022/05/25 04:28:06;;;;;;;0.00;0.00;;;;;;;;;;5048421;28;20265;-62
2022/05/25 04:30:32;;;;;;;0.00;0.00;;;;;;;;;;5077808;28;20064;-62
2022/05/25 04:32:59;;;;;;;0.00;0.00;;;;;;;;;;5058065;28;20058;-63
2022/05/25 04:35:26;;;;;;;0.00;0.00;;;;;;;;;;5047838;28;20049;-62
2022/05/25 04:37:52;;;;;;;0.00;0.00;;;;;;;;;;5049176;28;20061;-62
2022/05/25 04:40:30;;;;;;;0.00;0.00;;;;;;;;;;5060443;28;20070;-62
2022/05/25 04:42:58;;;;;;;0.00;0.00;;;;;;;;;;5048254;28;20054;-62
2022/05/25 04:45:26;;;;;;;0.00;0.00;;;;;;;;;;5047990;28;20065;-62
2022/05/25 04:47:56;;;;;;;0.00;0.00;;;;;;;;;;5048402;28;20053;-62
2022/05/25 04:50:23;;;;;;;0.00;0.00;;;;;;;;;;5057796;28;20077;-62
2022/05/25 04:52:50;;;;;;;0.05;0.05;;;;;;;;;;5047983;28;20060;-62
2022/05/25 04:58:03;;;;;;;0.00;0.00;;;;;;;;;;5048538;28;20391;-62
2022/05/25 05:00:29;;;;;;;0.00;0.00;;;;;;;;;;5068561;28;20135;-62
2022/05/25 05:02:56;;;;;;;0.00;0.00;;;;;;;;;;5050107;28;20050;-62
2022/05/25 05:05:22;;;;;;;0.00;0.00;;;;;;;;;;5047622;28;20057;-62
2022/05/25 05:07:48;;;;;;;0.00;0.00;;;;;;;;;;5047696;28;20093;-62
2022/05/25 05:10:15;;;;;;;0.00;0.00;;;;;;;;;;5060095;28;20130;-62
2022/05/25 05:12:41;;;;;;;0.00;0.00;;;;;;;;;;5047808;28;20490;-62
2022/05/25 05:15:09;;;;;;;0.00;0.00;;;;;;;;;;5047726;28;20053;-62
2022/05/25 05:17:35;;;;;;;0.00;0.00;;;;;;;;;;5050283;28;20112;-63
2022/05/25 05:20:02;;;;;;;0.00;0.00;;;;;;;;;;5060724;28;20060;-62
2022/05/25 05:22:29;;;;;;;0.00;0.00;;;;;;;;;;5077287;28;20537;-62
2022/05/25 05:24:57;;;;;;;0.00;0.00;;;;;;;;;;5087365;28;20149;-62
2022/05/25 05:27:23;;;;;;;0.00;0.00;;;;;;;;;;5087834;28;20044;-62
2022/05/25 05:29:49;;;;;;;0.00;0.00;;;;;;;;;;5053423;28;20324;-62
2022/05/25 05:32:16;;;;;;;0.00;0.00;;;;;;;;;;5071666;28;20076;-63
2022/05/25 05:34:43;;;;;;;0.00;0.00;;;;;;;;;;5050936;28;20104;-63
2022/05/25 05:37:12;;;;;;;0.00;0.00;;;;;;;;;;5046545;28;20050;-62
2022/05/25 05:39:44;;;;;;;0.00;0.00;;;;;;;;;;5057986;28;20064;-62
2022/05/25 05:42:12;;;;;;;0.00;0.00;;;;;;;;;;5085420;28;20064;-62
2022/05/25 05:44:41;;;;;;;0.00;0.00;;;;;;;;;;5087807;28;20102;-62
2022/05/25 05:47:10;;;;;;;0.00;0.00;;;;;;;;;;5074647;28;20603;-62
2022/05/25 05:49:38;;;;;;;0.00;0.00;;;;;;;;;;5070273;28;20063;-63
2022/05/25 05:52:04;;;;;;;0.00;0.00;;;;;;;;;;5077237;28;20423;-63
2022/05/25 05:54:31;;;;;;;0.00;0.00;;;;;;;;;;5086162;28;20053;-63
2022/05/25 05:56:57;;;;;;;0.00;0.00;;;;;;;;;;5067509;28;20122;-63
2022/05/25 05:59:24;;;;;;;0.00;0.00;;;;;;;;;;5063419;28;20088;-63
2022/05/25 06:01:50;;;;;;;0.00;0.00;;;;;;;;;;5074447;28;20065;-63
2022/05/25 06:04:17;;;;;;;0.00;0.00;;;;;;;;;;5074189;28;20049;-62
2022/05/25 06:06:43;;;;;;;0.00;0.00;;;;;;;;;;5076454;28;20102;-60
2022/05/25 06:09:10;;;;;;;0.00;0.00;;;;;;;;;;5053290;28;20053;-61
2022/05/25 06:11:41;;;;;;;0.00;0.00;;;;;;;;;;5057981;28;20811;-60
2022/05/25 06:14:07;;;;;;;0.00;0.00;;;;;;;;;;5085427;28;20052;-60
2022/05/25 06:19:33;;;;;;;0.38;0.38;;;;;;;;;;5064719;28;20050;-61
2022/05/25 06:22:00;;;;;;;0.00;0.00;;;;;;;;;;5053681;28;20177;-60
2022/05/25 06:24:27;;;;;;;0.00;0.00;;;;;;;;;;5061522;28;20608;-61
2022/05/25 06:26:54;;;;;;;0.00;0.00;;;;;;;;;;5073980;28;20053;-61
2022/05/25 06:29:21;;;;;;;0.00;0.00;;;;;;;;;;5056137;28;20134;-60
2022/05/25 06:31:50;;;;;;;0.00;0.00;;;;;;;;;;5069600;28;20580;-60
2022/05/25 06:34:17;;;;;;;0.00;0.00;;;;;;;;;;5070245;28;20053;-60
2022/05/25 06:36:46;;;;;;;0.00;0.00;;;;;;;;;;5069846;28;20159;-60
2022/05/25 06:39:12;;;;;;;0.13;0.08;;;;;;;;;;5054279;28;21062;-60
2022/05/25 06:41:39;;;;;;;0.00;0.00;;;;;;;;;;5053447;28;20064;-60
2022/05/25 06:44:05;;;;;;;0.00;0.00;;;;;;;;;;5050964;28;20057;-62
2022/05/25 06:46:32;;;;;;;0.00;0.00;;;;;;;;;;5049949;28;20558;-62
2022/05/25 06:48:58;;;;;;;0.00;0.00;;;;;;;;;;5053994;28;20060;-62
2022/05/25 06:51:28;;;;;;;0.00;0.00;;;;;;;;;;5057159;28;20126;-63
2022/05/25 06:53:54;;;;;;;0.05;0.05;;;;;;;;;;5088884;28;20106;-62
2022/05/25 06:56:23;;;;;;;0.00;0.00;;;;;;;;;;5085104;28;20584;-63
2022/05/25 06:58:51;;;;;;;0.00;0.00;;;;;;;;;;5061560;28;20973;-63
2022/05/25 07:01:17;;;;;;;0.00;0.00;;;;;;;;;;5049903;28;20591;-62
2022/05/25 07:03:44;;;;;;;0.00;0.00;;;;;;;;;;5050211;28;20103;-62
2022/05/25 07:06:11;;;;;;;0.00;0.00;;;;;;;;;;5049886;28;20049;-63
2022/05/25 07:08:38;;;;;;;1.08;0.13;;;;;;;;;;5049201;28;20136;-62
2022/05/25 07:11:05;;;;;;;0.00;0.00;;;;;;;;;;5050366;28;20053;-62
2022/05/25 07:13:31;;;;;;;0.20;0.20;;;;;;;;;;5054369;28;20148;-62
2022/05/25 07:16:00;;;;;;;0.00;0.00;;;;;;;;;;5061627;28;20560;-64
2022/05/25 07:18:28;;;;;;;0.00;0.00;;;;;;;;;;5060704;28;20081;-65
2022/05/25 07:20:59;;;;;;;0.00;0.00;;;;;;;;;;5064679;28;20081;-64
2022/05/25 07:23:25;;;;;;;0.00;0.00;;;;;;;;;;5050768;28;20535;-65
2022/05/25 07:25:52;;;;;;;0.05;0.05;;;;;;;;;;5056247;28;20107;-64
2022/05/25 07:28:18;;;;;;;0.00;0.00;;;;;;;;;;5058830;28;20551;-64
2022/05/25 07:30:46;;;;;;;0.00;0.00;;;;;;;;;;5049384;28;20124;-64
2022/05/25 07:33:12;;;;;;;0.00;0.00;;;;;;;;;;5056693;28;20057;-64
2022/05/25 07:35:39;;;;;;;0.00;0.00;;;;;;;;;;5066794;28;20053;-64
2022/05/25 07:38:06;;;;;;;0.00;0.00;;;;;;;;;;5055251;28;20508;-64
2022/05/25 07:40:37;;;;;;;0.00;0.00;;;;;;;;;;5048782;28;20056;-65
2022/05/25 07:43:09;;;;;;;0.00;0.00;;;;;;;;;;5055840;28;20113;-65
2022/05/25 07:45:36;;;;;;;0.00;0.00;;;;;;;;;;5063087;28;20119;-66
2022/05/25 07:48:02;;;;;;;0.00;0.00;;;;;;;;;;5085279;28;20049;-69
2022/05/25 07:50:34;;;;;;;0.25;0.10;;;;;;;;;;5067635;28;20061;-63
2022/05/25 07:53:01;;;;;;;0.00;0.00;;;;;;;;;;5061715;28;20508;-63
2022/05/25 07:55:27;;;;;;;0.00;0.00;;;;;;;;;;5082185;28;20048;-64
2022/05/25 07:57:54;;;;;;;0.00;0.00;;;;;;;;;;5087615;28;20060;-63
2022/05/25 08:00:24;;;;;;;0.00;0.00;;;;;;;;;;5048873;28;20057;-63
2022/05/25 08:05:43;;;;;;;0.00;0.00;;;;;;;;;;5067520;28;20519;-63
2022/05/25 08:08:15;;;;;;;0.00;0.00;;;;;;;;;;5048837;28;20061;-63
2022/05/25 08:10:47;;;;;;;0.17;0.17;;;;;;;;;;5048668;28;20208;-63
2022/05/25 08:13:14;;;;;;;0.00;0.00;;;;;;;;;;5063446;28;20210;-64
2022/05/25 08:15:42;;;;;;;0.00;0.00;;;;;;;;;;5048310;28;20132;-63
2022/05/25 08:18:10;;;;;;;0.00;0.00;;;;;;;;;;5049881;28;20057;-63
2022/05/25 08:20:36;;;;;;;0.10;0.08;;;;;;;;;;5048347;28;20108;-64
2022/05/25 08:23:07;;;;;;;0.13;0.13;;;;;;;;;;5052044;28;20052;-63
2022/05/25 08:25:34;;;;;;;0.00;0.00;;;;;;;;;;5065972;28;20053;-63
2022/05/25 08:28:00;;;;;;;0.00;0.00;;;;;;;;;;5068047;28;20057;-63
2022/05/25 08:30:27;;;;;;;0.00;0.00;;;;;;;;;;5068595;28;20057;-63
2022/05/25 08:32:54;;;;;;;0.00;0.00;;;;;;;;;;5068223;28;20057;-63
2022/05/25 08:35:21;;;;;;;0.10;0.10;;;;;;;;;;5063194;28;20108;-63
2022/05/25 08:37:47;;;;;;;0.80;0.45;;;;;;;;;;5048406;28;20054;-63
2022/05/25 08:40:17;;;;;;;0.10;0.00;;;;;;;;;;5054263;28;20056;-63
2022/05/25 08:42:57;;;;;;;0.00;0.00;;;;;;;;;;5068019;28;20498;-64
2022/05/25 08:45:26;;;;;;;0.00;0.00;;;;;;;;;;5067388;28;20065;-63
2022/05/25 08:47:55;;;;;;;0.00;0.00;;;;;;;;;;5067871;28;20095;-64
2022/05/25 08:50:22;;;;;;;0.00;0.00;;;;;;;;;;5048691;28;20085;-63
2022/05/25 08:52:48;;;;;;;0.20;0.15;;;;;;;;;;5048085;28;20108;-64
2022/05/25 08:55:25;;;;;;;0.00;0.00;;;;;;;;;;5047645;28;20512;-64
2022/05/25 08:57:53;;;;;;;0.10;0.10;;;;;;;;;;5048271;28;20080;-64
2022/05/25 09:00:22;;;;;;;0.20;0.15;;;;;;;;;;5066199;28;20119;-64
2022/05/25 09:03:08;;;;;;;0.00;0.00;;;;;;;;;;5072450;28;21940;-64
2022/05/25 09:05:40;;;;;;;0.00;0.00;;;;;;;;;;5084959;28;20452;-65
2022/05/25 09:08:25;;;;;;;0.43;0.43;;;;;;;;;;5084009;28;20084;-64
2022/05/25 09:10:55;;;;;;;0.32;0.17;;;;;;;;;;5057985;28;20131;-65
2022/05/25 09:13:25;;;;;;;0.00;0.00;;;;;;;;;;5061461;28;20585;-63
2022/05/25 09:18:42;;;;;;;0.00;0.00;;;;;;;;;;5064689;28;20044;-63
2022/05/25 09:21:08;;;;;;;0.17;0.10;;;;;;;;;;5087649;28;20110;-64
2022/05/25 09:23:36;;;;;;;0.00;0.00;;;;;;;;;;5075310;28;20057;-64
2022/05/25 09:26:03;;;;;;;0.00;0.00;;;;;;;;;;5048947;28;20058;-64
2022/05/25 09:28:38;;;;;;;0.00;0.00;;;;;;;;;;5068612;28;20053;-60
2022/05/25 09:31:05;;;;;;;0.00;0.00;;;;;;;;;;5062553;28;20052;-65
2022/05/25 09:33:44;;;;;;;0.00;0.00;;;;;;;;;;5046879;28;20057;-63
2022/05/25 09:36:14;;;;;;;0.20;0.10;;;;;;;;;;5047797;28;20144;-60
2022/05/25 09:38:45;;;;;;;0.00;0.00;;;;;;;;;;5052391;28;20049;-64
2022/05/25 09:41:23;;;;;;;0.00;0.00;;;;;;;;;;5086874;28;20052;-64
2022/05/25 09:43:54;;;;;;;0.00;0.00;;;;;;;;;;5065131;28;20053;-63
2022/05/25 09:46:23;;;;;;;0.00;0.00;;;;;;;;;;5071686;28;20068;-64
2022/05/25 09:48:51;;;;;;;0.00;0.00;;;;;;;;;;5063226;28;20140;-64
2022/05/25 09:51:41;;;;;;;0.00;0.00;;;;;;;;;;5047123;28;20620;-63
2022/05/25 09:54:21;;;;;;;0.00;0.00;;;;;;;;;;5047068;28;20562;-64
2022/05/25 09:56:50;;;;;;;0.00;0.00;;;;;;;;;;5046379;28;20507;-64
2022/05/25 09:59:24;;;;;;;0.00;0.00;;;;;;;;;;5047137;28;20057;-64
2022/05/25 10:01:52;;;;;;;0.00;0.00;;;;;;;;;;5047441;28;20053;-63
2022/05/25 10:04:34;;;;;;;0.00;0.00;;;;;;;;;;5047061;28;20593;-63
2022/05/25 10:07:11;;;;;;;0.00;0.00;;;;;;;;;;5056838;28;20131;-63
2022/05/25 10:09:43;;;;;;;0.00;0.00;;;;;;;;;;5050698;28;20056;-63
2022/05/25 10:12:24;;;;;;;0.00;0.00;;;;;;;;;;5061756;28;20081;-63
2022/05/25 10:14:56;;;;;;;0.00;0.00;;;;;;;;;;5047263;28;20120;-63
2022/05/25 10:17:39;;;;;;;0.00;0.00;;;;;;;;;;5050561;28;20570;-60
2022/05/25 10:20:27;;;;;;;0.00;0.00;;;;;;;;;;5053143;28;20084;-63
2022/05/25 10:23:05;;;;;;;0.00;0.00;;;;;;;;;;5063755;28;20057;-63
2022/05/25 10:25:34;;;;;;;0.00;0.00;;;;;;;;;;5066430;28;20107;-63
2022/05/25 10:28:01;;;;;;;0.00;0.00;;;;;;;;;;5064759;28;20049;-63
2022/05/25 10:39:14;;;;;;;0.00;0.00;;;;;;;;;;5050703;28;20443;-64
2022/05/25 10:41:43;;;;;;;0.00;0.00;;;;;;;;;;5066328;28;20103;-63
2022/05/25 10:44:10;;;;;;;0.00;0.00;;;;;;;;;;5050750;28;20085;-63
2022/05/25 10:46:38;;;;;;;0.00;0.00;;;;;;;;;;5081640;28;20573;-63
2022/05/25 10:49:24;;;;;;;0.00;0.00;;;;;;;;;;5086059;28;20060;-64
2022/05/25 10:51:52;;;;;;;0.00;0.00;;;;;;;;;;5087392;28;20056;-63
2022/05/25 10:57:17;;;;;;;0.00;0.00;;;;;;;;;;5058944;28;20500;-63
2022/05/25 11:00:03;;;;;;;0.00;0.00;;;;;;;;;;5046400;28;20163;-63
2022/05/25 11:02:32;;;;;;;0.10;0.03;;;;;;;;;;5045559;28;20050;-63
2022/05/25 11:05:01;;;;;;;0.00;0.00;;;;;;;;;;5046391;28;20535;-64
2022/05/25 11:07:32;;;;;;;0.00;0.00;;;;;;;;;;5046043;28;20081;-63
2022/05/25 11:10:17;;;;;;;0.00;0.00;;;;;;;;;;5049404;28;20054;-63
2022/05/25 11:13:02;;;;;;;0.00;0.00;;;;;;;;;;5049869;28;20061;-63
2022/05/25 11:15:31;;;;;;;0.00;0.00;;;;;;;;;;5048357;28;20095;-63
2022/05/25 11:18:01;;;;;;;0.00;0.00;;;;;;;;;;5053991;28;20982;-63
2022/05/25 11:20:46;;;;;;;0.00;0.00;;;;;;;;;;5069632;28;20111;-63
2022/05/25 11:23:21;;;;;;;0.00;0.00;;;;;;;;;;5069350;28;20056;-63
2022/05/25 11:25:48;;;;;;;0.00;0.00;;;;;;;;;;5068477;28;20053;-63
2022/05/25 11:28:17;;;;;;;0.00;0.00;;;;;;;;;;5069431;28;20057;-64
2022/05/25 11:31:02;;;;;;;0.00;0.00;;;;;;;;;;5068404;28;20497;-64
2022/05/25 11:33:41;;;;;;;0.00;0.00;;;;;;;;;;5069065;28;20053;-65
2022/05/25 11:36:39;;;;;;;0.00;0.00;;;;;;;;;;5069383;28;20052;-64
2022/05/25 11:39:08;;;;;;;0.00;0.00;;;;;;;;;;5068963;28;20056;-64
2022/05/25 11:41:46;;;;;;;0.00;0.00;;;;;;;;;;5069000;28;20083;-64
2022/05/25 11:44:24;;;;;;;0.00;0.00;;;;;;;;;;5069601;28;20480;-64
2022/05/25 11:46:51;;;;;;;0.00;0.00;;;;;;;;;;5069006;28;21227;-64
2022/05/25 11:49:52;;;;;;;0.00;0.00;;;;;;;;;;5068121;28;20057;-64
2022/05/25 11:52:26;;;;;;;0.00;0.00;;;;;;;;;;5068966;28;20056;-64
2022/05/25 11:55:15;;;;;;;0.00;0.00;;;;;;;;;;5069317;28;20092;-66
2022/05/25 11:57:45;;;;;;;0.00;0.00;;;;;;;;;;5069119;28;20088;-63
2022/05/25 12:00:26;;;;;;;0.00;0.00;;;;;;;;;;5068762;28;20053;-64
2022/05/25 12:03:03;;;;;;;0.00;0.00;;;;;;;;;;5068683;28;20480;-64
2022/05/25 12:05:40;;;;;;;0.00;0.00;;;;;;;;;;5052739;28;20111;-64
2022/05/25 12:08:19;;;;;;;0.00;0.00;;;;;;;;;;5048457;28;20119;-64
2022/05/25 12:10:53;;;;;;;0.00;0.00;;;;;;;;;;5049004;28;20139;-64
2022/05/25 12:13:41;;;;;;;0.73;0.45;;;;;;;;;;5048068;28;20131;-64
2022/05/25 12:16:07;;;;;;;;;;;;;;;;;;5048759;28;20092;-63
2022/05/25 12:18:42;;;;;;;0.00;0.00;;;;;;;;;;5056791;28;46128;-63
2022/05/25 12:21:13;;;;;;;0.00;0.00;;;;;;;;;;5067168;28;20049;-63
2022/05/25 12:23:43;;;;;;;0.00;0.00;;;;;;;;;;5068032;28;20053;-63
2022/05/25 12:26:12;;;;;;;0.00;0.00;;;;;;;;;;5067770;28;20521;-63
2022/05/25 12:28:40;;;;;;;0.00;0.00;;;;;;;;;;5068146;28;20061;-64
2022/05/25 12:31:15;;;;;;;0.08;0.08;;;;;;;;;;5068642;28;20056;-63
2022/05/25 12:33:42;;;;;;;0.00;0.00;;;;;;;;;;5068642;28;20151;-63
2022/05/25 12:36:10;;;;;;;0.00;0.00;;;;;;;;;;5067624;28;20138;-64
2022/05/25 12:38:37;;;;;;;0.00;0.00;;;;;;;;;;5059100;28;20076;-63
2022/05/25 12:41:23;;;;;;;0.00;0.00;;;;;;;;;;5048185;28;20081;-63
2022/05/25 12:43:51;;;;;;;0.00;0.00;;;;;;;;;;5047795;28;20111;-64
2022/05/25 12:49:30;;;;;;;0.00;0.00;;;;;;;;;;5046924;28;20111;-63
2022/05/25 12:51:56;;;;;;;0.00;0.00;;;;;;;;;;5048884;28;20045;-63
2022/05/25 12:54:24;;;;;;;0.00;0.00;;;;;;;;;;5047401;28;20049;-63
2022/05/25 12:56:51;;;;;;;0.08;0.08;;;;;;;;;;5048911;28;20061;-62
2022/05/25 12:59:31;;;;;;;0.00;0.00;;;;;;;;;;5047732;28;20053;-64
2022/05/25 13:02:13;;;;;;;0.05;0.00;;;;;;;;;;5047898;28;20091;-65
2022/05/25 13:04:42;;;;;;;0.00;0.00;;;;;;;;;;5047023;28;20056;-64
2022/05/25 13:07:20;;;;;;;0.00;0.00;;;;;;;;;;5048048;28;20057;-64
2022/05/25 13:09:47;;;;;;;0.00;0.00;;;;;;;;;;5048341;28;20059;-63
2022/05/25 13:12:33;;;;;;;0.00;0.00;;;;;;;;;;5048770;28;20640;-63
2022/05/25 13:14:59;;;;;;;0.00;0.00;;;;;;;;;;5047279;28;20300;-63
2022/05/25 13:17:46;;;;;;;0.00;0.00;;;;;;;;;;5047644;28;20456;-63
2022/05/25 13:20:13;;;;;;;0.00;0.00;;;;;;;;;;5047950;28;20100;-63
2022/05/25 13:22:40;;;;;;;0.00;0.00;;;;;;;;;;5047588;28;20057;-63
2022/05/25 13:25:11;;;;;;;0.00;0.00;;;;;;;;;;5047449;28;20053;-63
2022/05/25 13:27:58;;;;;;;0.00;0.00;;;;;;;;;;5046844;28;20112;-63
2022/05/25 13:30:28;;;;;;;0.00;0.00;;;;;;;;;;5047438;28;20092;-63
2022/05/25 13:33:00;;;;;;;0.00;0.00;;;;;;;;;;5046527;28;20061;-63
2022/05/25 13:35:36;;;;;;;0.00;0.00;;;;;;;;;;5047998;28;20061;-63
2022/05/25 13:38:02;;;;;;;0.00;0.00;;;;;;;;;;5047797;28;20057;-63
2022/05/25 13:40:34;;;;;;;0.00;0.00;;;;;;;;;;5046996;28;20574;-63
2022/05/25 13:43:02;;;;;;;0.00;0.00;;;;;;;;;;5047180;28;20088;-63
2022/05/25 13:45:29;;;;;;;0.00;0.00;;;;;;;;;;5047363;28;20057;-63
2022/05/25 13:47:57;;;;;;;0.00;0.00;;;;;;;;;;5047004;28;20108;-63
2022/05/25 13:50:32;;;;;;;0.00;0.00;;;;;;;;;;5046666;28;20601;-63
2022/05/25 13:52:59;;;;;;;0.00;0.00;;;;;;;;;;5046606;28;20057;-63
2022/05/25 13:55:28;;;;;;;0.00;0.00;;;;;;;;;;5047269;28;20077;-63
2022/05/25 13:57:59;;;;;;;0.00;0.00;;;;;;;;;;5047863;28;20053;-63
2022/05/25 14:00:26;;;;;;;0.00;0.00;;;;;;;;;;5047155;28;20053;-64
2022/05/25 14:02:54;;;;;;;0.00;0.00;;;;;;;;;;5046826;28;20053;-63
2022/05/25 14:05:40;;;;;;;;;;;;;;;;;;5047364;28;20156;-63
2022/05/25 14:08:06;;;;;;;0.00;0.00;;;;;;;;;;5046163;28;45082;-64
2022/05/25 14:13:23;;;;;;;0.00;0.00;;;;;;;;;;5047029;28;20650;-63
2022/05/25 14:15:53;;;;;;;0.00;0.00;;;;;;;;;;5046244;28;20053;-64
2022/05/25 14:18:20;;;;;;;0.00;0.00;;;;;;;;;;5046664;28;20504;-64
2022/05/25 14:20:46;;;;;;;0.00;0.00;;;;;;;;;;5046940;28;20081;-64
2022/05/25 14:23:12;;;;;;;0.00;0.00;;;;;;;;;;5046631;28;20508;-63
2022/05/25 14:25:40;;;;;;;0.00;0.00;;;;;;;;;;5045943;28;20483;-63
2022/05/25 14:28:07;;;;;;;0.00;0.00;;;;;;;;;;5046856;28;20487;-63
2022/05/25 14:30:35;;;;;;;1.92;0.95;;;;;;;;;;5046428;28;20054;-63
2022/05/25 14:33:04;;;;;;;0.00;0.00;;;;;;;;;;5046986;28;20057;-63
2022/05/25 14:35:32;;;;;;;0.00;0.00;;;;;;;;;;5046443;28;20496;-63
2022/05/25 14:38:03;;;;;;;0.32;0.30;;;;;;;;;;5046554;28;20053;-63
2022/05/25 14:40:50;;;;;;;0.00;0.00;;;;;;;;;;5045972;28;20049;-63
2022/05/25 14:43:35;;;;;;;0.00;0.00;;;;;;;;;;5047387;28;20049;-63
2022/05/25 14:46:07;;;;;;;0.00;0.00;;;;;;;;;;5050225;28;20077;-63
2022/05/25 14:48:33;;;;;;;0.00;0.00;;;;;;;;;;5068365;28;20363;-63
2022/05/25 14:51:01;;;;;;;0.00;0.00;;;;;;;;;;5069742;28;20048;-64
2022/05/25 14:53:29;;;;;;;0.00;0.00;;;;;;;;;;5070063;28;20064;-62
2022/05/25 14:56:00;;;;;;;;;;;;;;;;;;5050594;28;20500;-64
2022/05/25 14:58:27;;;;;;;0.00;0.00;;;;;;;;;;5048262;28;44773;-64
2022/05/25 15:01:06;;;;;;;0.00;0.00;;;;;;;;;;5049864;28;20053;-62
2022/05/25 15:03:38;;;;;;;0.00;0.00;;;;;;;;;;5049943;28;20057;-62
2022/05/25 15:06:06;;;;;;;0.00;0.00;;;;;;;;;;5049992;28;20087;-63
2022/05/25 15:08:37;;;;;;;0.00;0.00;;;;;;;;;;5049087;28;20536;-63
2022/05/25 15:11:33;;;;;;;0.00;0.00;;;;;;;;;;5050174;28;20504;-62
2022/05/25 15:19:54;;;;;;;0.00;0.00;;;;;;;;;;5049785;28;20132;-62
2022/05/25 15:22:26;;;;;;;0.00;0.00;;;;;;;;;;5049355;28;20057;-62
2022/05/25 15:25:01;;;;;;;0.00;0.00;;;;;;;;;;5048300;28;20053;-62
2022/05/25 15:27:38;;;;;;;0.00;0.00;;;;;;;;;;5049519;28;20144;-62
2022/05/25 15:30:24;;;;;;;0.00;0.00;;;;;;;;;;5049067;28;20050;-62
2022/05/25 15:32:50;;;;;;;0.00;0.00;;;;;;;;;;5048862;28;20054;-62
2022/05/25 15:35:16;;;;;;;6.93;0.22;;;;;;;;;;5049708;28;20116;-62
2022/05/25 15:37:53;;;;;;;0.00;0.00;;;;;;;;;;5048833;28;20127;-62
2022/05/25 15:40:28;;;;;;;0.00;0.00;;;;;;;;;;5049458;28;20053;-62
2022/05/25 15:42:55;;;;;;;0.00;0.00;;;;;;;;;;5048514;28;20058;-62